Saber Run

Overall Finish List

August 19, 2017


Results By Fast Finish Results- all results are unofficial until marked OFFICIAL Fast Finish Results www.fastfinishresults.com

2 Mile

Place Name Team Bib No Age Gender Chip Time Gun Time Pace
1 Wachter Karl Alumni 1320 M 10:26.6 10:26.6 5:13/M
2 Jacob Evans Sabers 1250 M 11:08.9 11:08.9 5:34/M
3 Corbin Michels Sabers 1259 M 11:12.4 11:12.4 5:36/M
4 Simon Horning Sabers 1261 M 11:26.9 11:26.9 5:43/M
5 Heidal Eric Alumni 1326 M 11:40.9 11:40.9 5:50/M
6 Rachel Kyle Alumni 1324 M 12:04.3 12:04.3 6:02/M
7 Andrew Sorenson Community 1329 M 12:06.5 12:06.5 6:03/M
8 Zach Broome Sabers 1254 M 12:07.4 12:07.4 6:04/M
9 Brady Buth Sabers 1255 M 12:11.4 12:11.4 6:06/M
10 Dan Olfert Sabers 1284 M 12:32.0 12:32.0 6:16/M
11 Zach Yuza Sabers 1288 M 12:34.1 12:34.1 6:17/M
12 Eric Dyrhaug Sabers 1249 M 12:35.1 12:35.1 6:18/M
13 Elias Temp Sabers 1262 M 12:36.4 12:36.4 6:18/M
14 Benjamin Palmieri Sabers 1270 M 12:41.1 12:41.1 6:21/M
15 Menning Gavin Alumni 1316 M 12:41.7 12:41.7 6:21/M
16 Jayda Becker Sabers 1217 F 12:42.2 12:42.2 6:21/M
17 Peterson Kyle Alumni 1314 M 12:50.5 12:50.5 6:25/M
18 Maxwell Wilson Sabers 1264 M 12:51.3 12:51.3 6:26/M
19 Isabel Meger Sabers 1233 F 13:00.5 13:00.5 6:30/M
20 Maya Rachel Sabers 1240 F 13:05.1 13:05.1 6:33/M
21 Kenzie Misgen Sabers 1235 F 13:05.5 13:05.5 6:33/M
22 Ryan O'Connor Sabers 1283 M 13:07.1 13:07.1 6:34/M
23 Dean Luehrs Sabers 1258 M 13:13.7 13:13.7 6:37/M
24 Ryan Giblin Sabers 1293 M 13:16.7 13:16.7 6:38/M
25 Anthony (AJ) Grabianowski Sabers 1257 M 13:18.4 13:18.4 6:39/M
26 Kevin Krenik Sabers 1296 M 13:19.9 13:19.9 6:40/M
27 Caden Hanninen Sabers 1267 M 13:20.7 13:20.7 6:40/M
28 Allie Handt Sabers 1230 F 13:23.0 13:23.0 6:42/M
29 Ali Styba Sabers 1227 F 13:27.8 13:27.8 6:44/M
30 Carly Gorter Sabers 1216 F 13:33.6 13:33.6 6:47/M
31 Abby Meger Sabers 1234 F 13:33.6 13:33.6 6:47/M
32 Katelyn Buth Sabers 1218 F 13:34.9 13:34.9 6:47/M
33 Nathan Van Brocklin Sabers 1285 M 13:36.9 13:36.9 6:48/M
34 Zachary Drees Sabers 1248 M 13:45.6 13:45.6 6:53/M
35 Grace Schmelz-Bundt Sabers 1192 F 13:50.1 13:50.1 6:55/M
36 Annika Willmert Sabers 1196 F 13:51.3 13:51.3 6:56/M
37 Weir Daren Community 1323 M 13:54.0 13:54.0 6:57/M
38 Mikayla Gilson Sabers 1223 F 14:09.5 14:09.5 7:05/M
39 Davis Bain Sabers 1253 M 14:12.5 14:12.5 7:06/M
40 Amanda Handt Sabers 1224 F 14:14.5 14:14.5 7:07/M
41 Kirsten Johnson Sabers 1244 F 14:19.1 14:19.1 7:10/M
42 Becker Dan Community 1307 M 14:22.1 14:22.1 7:11/M
43 Jacob Fridgen Sabers 1260 M 14:22.1 14:22.1 7:11/M
44 Joe Grim Sabers 1275 M 14:22.2 14:22.2 7:11/M
45 Erin Olson Sabers 1243 F 14:23.3 14:23.3 7:12/M
46 Drew Christman Sabers 1273 M 14:25.0 14:25.0 7:13/M
47 Tristan Jenks Sabers 1278 M 14:25.9 14:25.9 7:13/M
48 Nicholas Briggs Sabers 1290 M 14:32.3 14:32.3 7:16/M
49 Penny Berens Sabers 1207 F 14:32.7 14:32.7 7:16/M
50 Danielle Wagner Sabers 1247 F 14:36.4 14:36.4 7:18/M
51 Henry Michael Sabers 1281 M 14:36.4 14:36.4 7:18/M
52 Dominic Weiler Sabers 1299 M 14:37.6 14:37.6 7:19/M
53 Max Hughes Sabers 1268 M 14:42.8 14:42.8 7:21/M
54 Dave Bristol Community 1318 M 14:49.4 14:49.4 7:25/M
55 Oliver Theis Sabers 1263 M 14:52.9 14:52.9 7:26/M
56 Oliver Kyllonen Sabers 1269 M 14:54.8 14:54.8 7:27/M
57 Kyllonen Daniella Alumni 1335 F 14:56.1 14:56.1 7:28/M
58 Jakob Hanson Sabers 1276 M 15:01.4 15:01.4 7:31/M
59 Belle Handt Sabers 1231 F 15:04.6 15:04.6 7:32/M
60 Braden Burger Sabers 1291 M 15:06.0 15:06.0 7:33/M
61 Riley Gilkison Sabers 1274 M 15:08.4 15:08.4 7:34/M
62 Caden Menning Sabers 1297 M 15:20.5 15:20.5 7:40/M
63 Leah Weir Sabers 1242 F 15:21.8 15:21.8 7:41/M
64 Aidan Sheehan Sabers 1271 M 15:23.5 15:23.5 7:42/M
65 Sofia Berens Sabers 1219 F 15:25.4 15:25.4 7:43/M
66 Courtney Parker Sabers 1206 F 15:26.8 15:26.8 7:43/M
67 Olivia Grabianowski Sabers 1204 F 15:32.8 15:32.8 7:46/M
68 Jaron Jenks Sabers 1294 M 15:34.4 15:34.4 7:47/M
69 Colin Anderson Sabers 1289 M 15:36.0 15:36.0 7:48/M
70 Gabby Gramont Sabers 1220 F 15:40.0 15:40.0 7:50/M
71 Mandy Hukee Sabers 1201 F 15:46.3 15:46.3 7:53/M
72 Shelby Unger-Wilson Sabers 1209 F 15:48.1 15:48.1 7:54/M
73 Owen Caliri Sabers 1266 M 15:56.6 15:56.6 7:58/M
74 Breck Knutson Sabers 1295 M 16:00.1 16:00.1 8:00/M
75 Jeff Seel Community 1327 M 16:04.7 16:04.7 8:02/M
76 Salinas Zak Alumni 1333 M 16:09.3 16:09.3 8:05/M
77 Kadin Williams Sabers 1287 M 16:10.3 16:10.3 8:05/M
78 Nicholas Kotval Sabers 1279 M 16:15.5 16:15.5 8:08/M
79 Gabrielle Rylance Sabers 1212 F 16:16.6 16:16.6 8:08/M
80 Riley Peterson Sabers 1205 F 16:16.7 16:16.7 8:08/M
81 Sarah Savage Sabers 1199 F 16:20.9 16:20.9 8:10/M
82 Caitlyn DeGier Sabers 1193 F 16:26.4 16:26.4 8:13/M
83 Venessa Agyapong Sabers 1211 F 16:40.0 16:40.0 8:20/M
84 McKenna Davis Sabers 1210 F 16:44.4 16:44.4 8:22/M
85 Isabelle Hoversten Sabers 1225 F 16:51.6 16:51.6 8:26/M
86 Emma Heyer Sabers 1200 F 16:56.0 16:56.0 8:28/M
87 Lexie Knutson Sabers 1221 F 17:10.6 17:10.6 8:35/M
88 Anthony Asmus Sabers 1265 M 17:11.7 17:11.7 8:36/M
89 Blake Beaumaster Sabers 1272 M 17:24.8 17:24.8 8:42/M
90 Jessica Yevu Sabers 1215 F 17:26.6 17:26.6 8:43/M
91 Lisondra Lance Sabers 1336 M 17:30.3 17:30.3 8:45/M
92 Abby Karr Sabers 1214 F 17:30.5 17:30.5 8:45/M
93 Nina Froats Sabers 1222 F 17:32.3 17:32.3 8:46/M
94 Molly Stewart Sabers 1236 F 17:35.0 17:35.0 8:48/M
95 Lindsay Sorenson Community 1328 F 17:39.9 17:39.9 8:50/M
96 Kael Lunser Sabers 1280 M 17:41.4 17:41.4 8:51/M
97 Charlie Webster Sabers 1286 M 17:44.7 17:44.7 8:52/M
98 Kayla Brinkman Sabers 1191 F 17:45.7 17:45.7 8:53/M
99 Gillson Michael Community 1308 M 17:52.8 17:52.8 8:56/M
100 Hukee Randy Community 1312 M 17:55.1 17:55.1 8:58/M
 
Place Name Team Bib No Age Gender Chip Time Gun Time Pace
101 Jessica Brook Sabers 1208 F 17:56.3 17:56.3 8:58/M
102 Aly Thorn Sabers 1229 F 18:10.4 18:10.4 9:05/M
103 Hannah Pflipsen Sabers 1226 F 18:10.7 18:10.7 9:05/M
104 Shalini Arun Sabers 1197 F 18:23.4 18:23.4 9:12/M
105 Madison Yuza Sabers 1246 F 18:29.2 18:29.2 9:15/M
106 Bridget Carlson Sabers 1239 F 18:32.4 18:32.4 9:16/M
107 Payton Mason Sabers 1241 F 18:35.2 18:35.2 9:18/M
108 Christensen Karl Community 1341 M 18:46.0 18:46.0 9:23/M
109 Weir Daren Community 1325 M 18:49.5 18:49.5 9:25/M
110 Northduse Katherine Community 1342 F 18:55.9 18:55.9 9:28/M
111 Brinkman Carter Community 1301 M 19:13.3 19:13.3 9:37/M
112 Brinkman Jessica Community 1302 F 19:13.7 19:13.7 9:37/M
113 Amanda Markert Sabers 1238 F 19:29.8 19:29.8 9:45/M
114 Janke John Community 1315 M 19:32.6 19:32.6 9:46/M
115 Chloe Witherington Sabers 1194 F 19:35.3 19:35.3 9:48/M
116 Sydney Mason Sabers 1213 F 19:35.3 19:35.3 9:48/M
117 Sam Mohn Sabers 1228 F 19:41.8 19:41.8 9:51/M
118 Davis Kim Community 1340 F 20:24.3 20:24.3 10:12/M
119 Dyrhaus Michelle Community 1330 F 20:50.5 20:50.5 10:25/M
120 Handt Pam Community 1313 F 20:50.8 20:50.8 10:25/M
121 Katelyn Gilson Sabers 1198 F 20:59.6 20:59.6 10:30/M
122 Amara Sok Sabers 1237 F 21:00.8 21:00.8 10:30/M
123 Scalf Rachel Alumni 1338 F 21:04.0 21:04.0 10:32/M
124 Christensen Paul Community 1339 M 21:07.8 21:07.8 10:34/M
125 Salinas Jeanie Community 1332 F 21:59.1 21:59.1 11:00/M
126 Maturza Emily Community 1331 F 21:59.4 21:59.4 11:00/M